sensor_id;sensor_type;location;lat;lon;timestamp;temperature;humidity
12477;DHT22;6303;51.504;6.300;2023-04-09T00:00:12;22.20;49.10
12477;DHT22;6303;51.504;6.300;2023-04-09T00:02:40;22.20;49.10
12477;DHT22;6303;51.504;6.300;2023-04-09T00:05:07;22.20;49.10
12477;DHT22;6303;51.504;6.300;2023-04-09T00:07:34;22.20;49.10
12477;DHT22;6303;51.504;6.300;2023-04-09T00:10:01;22.20;49.10
12477;DHT22;6303;51.504;6.300;2023-04-09T00:12:28;22.20;49.10
12477;DHT22;6303;51.504;6.300;2023-04-09T00:14:55;22.20;49.10
12477;DHT22;6303;51.504;6.300;2023-04-09T00:17:23;22.20;49.10
12477;DHT22;6303;51.504;6.300;2023-04-09T00:19:51;22.20;49.10
12477;DHT22;6303;51.504;6.300;2023-04-09T00:22:18;22.20;49.10
12477;DHT22;6303;51.504;6.300;2023-04-09T00:24:45;22.10;49.10
12477;DHT22;6303;51.504;6.300;2023-04-09T00:27:12;22.10;49.10
12477;DHT22;6303;51.504;6.300;2023-04-09T00:29:39;22.10;49.20
12477;DHT22;6303;51.504;6.300;2023-04-09T00:32:06;22.10;49.20
12477;DHT22;6303;51.504;6.300;2023-04-09T00:34:34;22.10;49.20
12477;DHT22;6303;51.504;6.300;2023-04-09T00:37:02;22.10;49.20
12477;DHT22;6303;51.504;6.300;2023-04-09T00:39:29;22.10;49.10
12477;DHT22;6303;51.504;6.300;2023-04-09T00:41:57;22.20;49.10
12477;DHT22;6303;51.504;6.300;2023-04-09T00:44:24;22.10;49.10
12477;DHT22;6303;51.504;6.300;2023-04-09T00:46:52;22.10;49.10
12477;DHT22;6303;51.504;6.300;2023-04-09T00:49:20;22.10;49.20
12477;DHT22;6303;51.504;6.300;2023-04-09T00:51:49;22.10;49.10
12477;DHT22;6303;51.504;6.300;2023-04-09T00:54:18;22.10;49.10
12477;DHT22;6303;51.504;6.300;2023-04-09T00:56:46;22.10;49.10
12477;DHT22;6303;51.504;6.300;2023-04-09T00:59:13;22.10;49.20
12477;DHT22;6303;51.504;6.300;2023-04-09T01:01:41;22.10;49.20
12477;DHT22;6303;51.504;6.300;2023-04-09T01:04:08;22.10;49.10
12477;DHT22;6303;51.504;6.300;2023-04-09T01:06:40;22.10;49.20
12477;DHT22;6303;51.504;6.300;2023-04-09T01:09:16;22.10;49.20
12477;DHT22;6303;51.504;6.300;2023-04-09T01:11:57;22.10;49.10
12477;DHT22;6303;51.504;6.300;2023-04-09T01:14:34;22.10;49.20
12477;DHT22;6303;51.504;6.300;2023-04-09T01:17:14;22.10;49.10
12477;DHT22;6303;51.504;6.300;2023-04-09T01:19:48;22.10;49.20
12477;DHT22;6303;51.504;6.300;2023-04-09T01:22:28;22.10;49.20
12477;DHT22;6303;51.504;6.300;2023-04-09T01:25:03;22.00;49.20
12477;DHT22;6303;51.504;6.300;2023-04-09T01:27:52;22.00;49.20
12477;DHT22;6303;51.504;6.300;2023-04-09T01:30:22;22.10;49.30
12477;DHT22;6303;51.504;6.300;2023-04-09T01:32:50;22.00;49.30
12477;DHT22;6303;51.504;6.300;2023-04-09T01:35:18;22.00;49.30
12477;DHT22;6303;51.504;6.300;2023-04-09T01:37:46;22.00;49.30
12477;DHT22;6303;51.504;6.300;2023-04-09T01:40:13;22.00;49.30
12477;DHT22;6303;51.504;6.300;2023-04-09T01:42:41;22.00;49.40
12477;DHT22;6303;51.504;6.300;2023-04-09T01:45:10;22.00;49.40
12477;DHT22;6303;51.504;6.300;2023-04-09T01:47:39;21.90;49.40
12477;DHT22;6303;51.504;6.300;2023-04-09T01:50:07;21.90;49.40
12477;DHT22;6303;51.504;6.300;2023-04-09T01:52:35;21.90;49.50
12477;DHT22;6303;51.504;6.300;2023-04-09T01:55:02;21.90;49.50
12477;DHT22;6303;51.504;6.300;2023-04-09T01:57:30;21.90;49.60
12477;DHT22;6303;51.504;6.300;2023-04-09T01:59:57;21.90;49.60
12477;DHT22;6303;51.504;6.300;2023-04-09T02:02:30;21.80;49.60
12477;DHT22;6303;51.504;6.300;2023-04-09T02:05:02;21.80;49.60
12477;DHT22;6303;51.504;6.300;2023-04-09T02:07:37;21.80;49.60
12477;DHT22;6303;51.504;6.300;2023-04-09T02:10:06;21.80;49.70
12477;DHT22;6303;51.504;6.300;2023-04-09T02:12:36;21.80;49.70
12477;DHT22;6303;51.504;6.300;2023-04-09T02:15:05;21.80;49.60
12477;DHT22;6303;51.504;6.300;2023-04-09T02:17:33;21.80;49.70
12477;DHT22;6303;51.504;6.300;2023-04-09T02:20:01;21.80;49.70
12477;DHT22;6303;51.504;6.300;2023-04-09T02:22:29;21.70;49.60
12477;DHT22;6303;51.504;6.300;2023-04-09T02:24:56;21.70;49.70
12477;DHT22;6303;51.504;6.300;2023-04-09T02:27:23;21.70;49.70
12477;DHT22;6303;51.504;6.300;2023-04-09T02:29:50;21.70;49.80
12477;DHT22;6303;51.504;6.300;2023-04-09T02:32:17;21.70;49.70
12477;DHT22;6303;51.504;6.300;2023-04-09T02:34:44;21.70;49.80
12477;DHT22;6303;51.504;6.300;2023-04-09T02:37:12;21.70;49.80
12477;DHT22;6303;51.504;6.300;2023-04-09T02:39:39;21.70;49.80
12477;DHT22;6303;51.504;6.300;2023-04-09T02:42:06;21.60;49.80
12477;DHT22;6303;51.504;6.300;2023-04-09T02:44:33;21.70;49.80
12477;DHT22;6303;51.504;6.300;2023-04-09T02:47:01;21.60;49.80
12477;DHT22;6303;51.504;6.300;2023-04-09T02:49:28;21.60;49.80
12477;DHT22;6303;51.504;6.300;2023-04-09T02:51:55;21.60;49.80
12477;DHT22;6303;51.504;6.300;2023-04-09T02:54:23;21.60;49.80
12477;DHT22;6303;51.504;6.300;2023-04-09T02:56:50;21.60;49.90
12477;DHT22;6303;51.504;6.300;2023-04-09T02:59:17;21.60;49.80
12477;DHT22;6303;51.504;6.300;2023-04-09T03:01:44;21.60;49.80
12477;DHT22;6303;51.504;6.300;2023-04-09T03:04:11;21.60;49.80
12477;DHT22;6303;51.504;6.300;2023-04-09T03:06:38;21.60;49.80
12477;DHT22;6303;51.504;6.300;2023-04-09T03:09:05;21.30;49.80
12477;DHT22;6303;51.504;6.300;2023-04-09T03:11:34;21.60;49.90
12477;DHT22;6303;51.504;6.300;2023-04-09T03:14:01;21.60;49.90
12477;DHT22;6303;51.504;6.300;2023-04-09T03:16:28;21.50;49.90
12477;DHT22;6303;51.504;6.300;2023-04-09T03:18:55;21.50;49.90
12477;DHT22;6303;51.504;6.300;2023-04-09T03:21:22;21.50;49.90
12477;DHT22;6303;51.504;6.300;2023-04-09T03:23:50;21.50;49.90
12477;DHT22;6303;51.504;6.300;2023-04-09T03:26:17;21.50;49.90
12477;DHT22;6303;51.504;6.300;2023-04-09T03:28:48;21.50;49.90
12477;DHT22;6303;51.504;6.300;2023-04-09T03:31:16;21.50;49.90
12477;DHT22;6303;51.504;6.300;2023-04-09T03:33:44;21.50;49.90
12477;DHT22;6303;51.504;6.300;2023-04-09T03:36:12;21.50;49.90
12477;DHT22;6303;51.504;6.300;2023-04-09T03:38:59;21.50;49.90
12477;DHT22;6303;51.504;6.300;2023-04-09T03:41:40;21.50;49.90
12477;DHT22;6303;51.504;6.300;2023-04-09T03:44:12;21.50;49.90
12477;DHT22;6303;51.504;6.300;2023-04-09T03:46:55;21.50;49.90
12477;DHT22;6303;51.504;6.300;2023-04-09T03:49:22;21.50;49.90
12477;DHT22;6303;51.504;6.300;2023-04-09T03:51:50;21.50;49.90
12477;DHT22;6303;51.504;6.300;2023-04-09T03:54:18;21.50;49.90
12477;DHT22;6303;51.504;6.300;2023-04-09T03:56:45;21.40;49.90
12477;DHT22;6303;51.504;6.300;2023-04-09T03:59:19;21.40;49.90
12477;DHT22;6303;51.504;6.300;2023-04-09T04:01:46;21.40;49.90
12477;DHT22;6303;51.504;6.300;2023-04-09T04:04:14;21.40;50.00
12477;DHT22;6303;51.504;6.300;2023-04-09T04:06:46;21.40;49.90
12477;DHT22;6303;51.504;6.300;2023-04-09T04:09:26;21.40;49.90
12477;DHT22;6303;51.504;6.300;2023-04-09T04:11:57;21.40;49.90
12477;DHT22;6303;51.504;6.300;2023-04-09T04:14:37;21.50;49.90
12477;DHT22;6303;51.504;6.300;2023-04-09T04:17:14;21.40;49.90
12477;DHT22;6303;51.504;6.300;2023-04-09T04:19:41;21.40;49.90
12477;DHT22;6303;51.504;6.300;2023-04-09T04:22:09;21.40;49.90
12477;DHT22;6303;51.504;6.300;2023-04-09T04:24:40;21.40;49.90
12477;DHT22;6303;51.504;6.300;2023-04-09T04:27:07;21.40;50.00
12477;DHT22;6303;51.504;6.300;2023-04-09T04:29:36;21.40;50.00
12477;DHT22;6303;51.504;6.300;2023-04-09T04:32:13;21.30;50.00
12477;DHT22;6303;51.504;6.300;2023-04-09T04:34:40;21.40;50.00
12477;DHT22;6303;51.504;6.300;2023-04-09T04:37:19;21.40;50.00
12477;DHT22;6303;51.504;6.300;2023-04-09T04:39:46;21.40;49.90
12477;DHT22;6303;51.504;6.300;2023-04-09T04:42:15;21.40;49.90
12477;DHT22;6303;51.504;6.300;2023-04-09T04:44:44;21.40;49.90
12477;DHT22;6303;51.504;6.300;2023-04-09T04:47:26;21.40;49.90
12477;DHT22;6303;51.504;6.300;2023-04-09T04:49:53;21.40;49.80
12477;DHT22;6303;51.504;6.300;2023-04-09T04:52:21;21.40;49.80
12477;DHT22;6303;51.504;6.300;2023-04-09T04:54:51;21.40;49.80
12477;DHT22;6303;51.504;6.300;2023-04-09T04:57:21;21.40;49.90
12477;DHT22;6303;51.504;6.300;2023-04-09T04:59:50;21.30;49.80
12477;DHT22;6303;51.504;6.300;2023-04-09T05:02:18;21.40;49.90
12477;DHT22;6303;51.504;6.300;2023-04-09T05:05:04;21.30;49.80
12477;DHT22;6303;51.504;6.300;2023-04-09T05:07:41;21.30;49.80
12477;DHT22;6303;51.504;6.300;2023-04-09T05:10:09;21.40;49.90
12477;DHT22;6303;51.504;6.300;2023-04-09T05:12:40;21.40;49.80
12477;DHT22;6303;51.504;6.300;2023-04-09T05:15:10;21.30;49.80
12477;DHT22;6303;51.504;6.300;2023-04-09T05:17:37;21.30;49.80
12477;DHT22;6303;51.504;6.300;2023-04-09T05:20:07;21.30;49.80
12477;DHT22;6303;51.504;6.300;2023-04-09T05:22:48;21.40;49.80
12477;DHT22;6303;51.504;6.300;2023-04-09T05:25:15;21.40;49.70
12477;DHT22;6303;51.504;6.300;2023-04-09T05:27:43;21.40;49.70
12477;DHT22;6303;51.504;6.300;2023-04-09T05:30:12;21.40;49.70
12477;DHT22;6303;51.504;6.300;2023-04-09T05:32:40;21.40;49.60
12477;DHT22;6303;51.504;6.300;2023-04-09T05:35:07;21.40;49.60
12477;DHT22;6303;51.504;6.300;2023-04-09T05:37:39;21.40;49.60
12477;DHT22;6303;51.504;6.300;2023-04-09T05:40:07;21.40;49.60
12477;DHT22;6303;51.504;6.300;2023-04-09T05:42:34;21.40;49.60
12477;DHT22;6303;51.504;6.300;2023-04-09T05:45:07;21.40;49.50
12477;DHT22;6303;51.504;6.300;2023-04-09T05:47:38;21.50;49.50
12477;DHT22;6303;51.504;6.300;2023-04-09T05:50:11;21.50;49.30
12477;DHT22;6303;51.504;6.300;2023-04-09T05:52:39;21.60;49.30
12477;DHT22;6303;51.504;6.300;2023-04-09T05:55:11;21.60;49.20
12477;DHT22;6303;51.504;6.300;2023-04-09T05:57:51;21.70;49.10
12477;DHT22;6303;51.504;6.300;2023-04-09T06:00:18;21.80;49.00
12477;DHT22;6303;51.504;6.300;2023-04-09T06:02:50;21.80;48.80
12477;DHT22;6303;51.504;6.300;2023-04-09T06:05:17;21.90;48.80
12477;DHT22;6303;51.504;6.300;2023-04-09T06:07:45;21.90;48.70
12477;DHT22;6303;51.504;6.300;2023-04-09T06:10:13;22.00;48.60
12477;DHT22;6303;51.504;6.300;2023-04-09T06:12:40;22.00;48.50
12477;DHT22;6303;51.504;6.300;2023-04-09T06:15:08;22.10;48.50
12477;DHT22;6303;51.504;6.300;2023-04-09T06:17:36;22.10;48.30
12477;DHT22;6303;51.504;6.300;2023-04-09T06:20:05;22.20;48.20
12477;DHT22;6303;51.504;6.300;2023-04-09T06:22:32;22.30;48.10
12477;DHT22;6303;51.504;6.300;2023-04-09T06:24:59;22.30;48.00
12477;DHT22;6303;51.504;6.300;2023-04-09T06:27:26;22.40;48.00
12477;DHT22;6303;51.504;6.300;2023-04-09T06:29:53;22.40;47.80
12477;DHT22;6303;51.504;6.300;2023-04-09T06:32:20;22.50;47.80
12477;DHT22;6303;51.504;6.300;2023-04-09T06:34:47;22.50;47.70
12477;DHT22;6303;51.504;6.300;2023-04-09T06:37:16;22.60;47.60
12477;DHT22;6303;51.504;6.300;2023-04-09T06:39:43;22.60;47.50
12477;DHT22;6303;51.504;6.300;2023-04-09T06:42:10;22.70;47.40
12477;DHT22;6303;51.504;6.300;2023-04-09T06:44:47;22.80;47.30
12477;DHT22;6303;51.504;6.300;2023-04-09T06:47:14;22.80;47.30
12477;DHT22;6303;51.504;6.300;2023-04-09T06:49:41;22.80;47.20
12477;DHT22;6303;51.504;6.300;2023-04-09T06:52:08;22.80;47.10
12477;DHT22;6303;51.504;6.300;2023-04-09T06:54:37;22.90;47.00
12477;DHT22;6303;51.504;6.300;2023-04-09T06:57:05;23.00;47.00
12477;DHT22;6303;51.504;6.300;2023-04-09T06:59:32;23.00;46.90
12477;DHT22;6303;51.504;6.300;2023-04-09T07:02:00;23.00;46.80
12477;DHT22;6303;51.504;6.300;2023-04-09T07:04:27;23.10;46.70
12477;DHT22;6303;51.504;6.300;2023-04-09T07:06:54;23.10;46.70
12477;DHT22;6303;51.504;6.300;2023-04-09T07:09:23;23.10;46.70
12477;DHT22;6303;51.504;6.300;2023-04-09T07:11:52;23.20;46.60
12477;DHT22;6303;51.504;6.300;2023-04-09T07:14:19;23.20;46.50
12477;DHT22;6303;51.504;6.300;2023-04-09T07:16:46;23.20;46.40
12477;DHT22;6303;51.504;6.300;2023-04-09T07:19:13;23.30;46.50
12477;DHT22;6303;51.504;6.300;2023-04-09T07:21:40;23.30;46.40
12477;DHT22;6303;51.504;6.300;2023-04-09T07:24:07;23.30;46.30
12477;DHT22;6303;51.504;6.300;2023-04-09T07:26:34;23.40;46.30
12477;DHT22;6303;51.504;6.300;2023-04-09T07:29:02;23.40;46.20
12477;DHT22;6303;51.504;6.300;2023-04-09T07:31:29;23.40;46.10
12477;DHT22;6303;51.504;6.300;2023-04-09T07:33:57;23.50;46.10
12477;DHT22;6303;51.504;6.300;2023-04-09T07:36:24;23.60;46.10
12477;DHT22;6303;51.504;6.300;2023-04-09T07:38:51;23.60;46.00
12477;DHT22;6303;51.504;6.300;2023-04-09T07:41:18;23.60;46.00
12477;DHT22;6303;51.504;6.300;2023-04-09T07:43:45;23.60;45.90
12477;DHT22;6303;51.504;6.300;2023-04-09T07:46:18;23.70;45.80
12477;DHT22;6303;51.504;6.300;2023-04-09T07:48:46;23.70;45.70
12477;DHT22;6303;51.504;6.300;2023-04-09T07:51:14;23.80;45.60
12477;DHT22;6303;51.504;6.300;2023-04-09T07:53:41;23.80;45.50
12477;DHT22;6303;51.504;6.300;2023-04-09T07:56:08;23.90;45.50
12477;DHT22;6303;51.504;6.300;2023-04-09T07:58:35;23.90;45.40
12477;DHT22;6303;51.504;6.300;2023-04-09T08:01:03;23.90;45.40
12477;DHT22;6303;51.504;6.300;2023-04-09T08:03:32;24.00;45.40
12477;DHT22;6303;51.504;6.300;2023-04-09T08:06:00;24.00;45.30
12477;DHT22;6303;51.504;6.300;2023-04-09T08:08:28;24.10;45.20
12477;DHT22;6303;51.504;6.300;2023-04-09T08:10:55;24.10;45.10
12477;DHT22;6303;51.504;6.300;2023-04-09T08:13:22;24.10;45.10
12477;DHT22;6303;51.504;6.300;2023-04-09T08:15:50;24.20;45.10
12477;DHT22;6303;51.504;6.300;2023-04-09T08:18:17;24.20;45.00
12477;DHT22;6303;51.504;6.300;2023-04-09T08:20:45;24.20;44.90
12477;DHT22;6303;51.504;6.300;2023-04-09T08:23:12;24.30;44.90
12477;DHT22;6303;51.504;6.300;2023-04-09T08:25:39;24.30;44.80
12477;DHT22;6303;51.504;6.300;2023-04-09T08:28:06;24.40;44.70
12477;DHT22;6303;51.504;6.300;2023-04-09T08:30:33;24.40;44.70
12477;DHT22;6303;51.504;6.300;2023-04-09T08:33:01;24.40;44.70
12477;DHT22;6303;51.504;6.300;2023-04-09T08:35:29;24.40;44.70
12477;DHT22;6303;51.504;6.300;2023-04-09T08:37:58;24.50;44.70
12477;DHT22;6303;51.504;6.300;2023-04-09T08:40:25;24.50;44.50
12477;DHT22;6303;51.504;6.300;2023-04-09T08:42:54;24.50;44.50
12477;DHT22;6303;51.504;6.300;2023-04-09T08:45:22;24.60;44.50
12477;DHT22;6303;51.504;6.300;2023-04-09T08:47:50;24.60;44.30
12477;DHT22;6303;51.504;6.300;2023-04-09T08:50:18;24.70;44.30
12477;DHT22;6303;51.504;6.300;2023-04-09T08:52:45;24.70;44.30
12477;DHT22;6303;51.504;6.300;2023-04-09T08:55:15;24.70;44.30
12477;DHT22;6303;51.504;6.300;2023-04-09T08:57:42;24.70;44.20
12477;DHT22;6303;51.504;6.300;2023-04-09T09:00:10;24.80;44.20
12477;DHT22;6303;51.504;6.300;2023-04-09T09:02:37;24.80;44.10
12477;DHT22;6303;51.504;6.300;2023-04-09T09:05:05;24.80;44.10
12477;DHT22;6303;51.504;6.300;2023-04-09T09:07:32;24.80;44.00
12477;DHT22;6303;51.504;6.300;2023-04-09T09:10:00;24.90;44.00
12477;DHT22;6303;51.504;6.300;2023-04-09T09:12:33;24.90;43.90
12477;DHT22;6303;51.504;6.300;2023-04-09T09:15:01;24.90;43.90
12477;DHT22;6303;51.504;6.300;2023-04-09T09:17:28;25.00;43.90
12477;DHT22;6303;51.504;6.300;2023-04-09T09:19:55;25.00;43.90
12477;DHT22;6303;51.504;6.300;2023-04-09T09:22:23;25.00;43.80
12477;DHT22;6303;51.504;6.300;2023-04-09T09:24:51;25.00;44.40
12477;DHT22;6303;51.504;6.300;2023-04-09T09:27:33;25.00;43.70
12477;DHT22;6303;51.504;6.300;2023-04-09T09:30:02;25.10;43.70
12477;DHT22;6303;51.504;6.300;2023-04-09T09:32:30;25.10;43.60
12477;DHT22;6303;51.504;6.300;2023-04-09T09:35:00;25.20;43.60
12477;DHT22;6303;51.504;6.300;2023-04-09T09:37:27;25.20;43.60
12477;DHT22;6303;51.504;6.300;2023-04-09T09:39:55;25.20;43.50
12477;DHT22;6303;51.504;6.300;2023-04-09T09:42:22;25.20;43.40
12477;DHT22;6303;51.504;6.300;2023-04-09T09:44:52;25.20;43.40
12477;DHT22;6303;51.504;6.300;2023-04-09T09:47:20;25.20;43.40
12477;DHT22;6303;51.504;6.300;2023-04-09T09:49:48;25.30;43.40
12477;DHT22;6303;51.504;6.300;2023-04-09T09:52:19;25.30;43.40
12477;DHT22;6303;51.504;6.300;2023-04-09T09:54:49;25.30;43.30
12477;DHT22;6303;51.504;6.300;2023-04-09T09:57:19;25.40;43.30
12477;DHT22;6303;51.504;6.300;2023-04-09T09:59:52;25.40;43.40
12477;DHT22;6303;51.504;6.300;2023-04-09T10:02:22;25.40;43.40
12477;DHT22;6303;51.504;6.300;2023-04-09T10:04:51;25.40;43.30
12477;DHT22;6303;51.504;6.300;2023-04-09T10:07:19;25.50;43.30
12477;DHT22;6303;51.504;6.300;2023-04-09T10:09:49;25.40;43.20
12477;DHT22;6303;51.504;6.300;2023-04-09T10:12:17;25.40;43.30
12477;DHT22;6303;51.504;6.300;2023-04-09T10:14:47;25.40;43.30
12477;DHT22;6303;51.504;6.300;2023-04-09T10:17:16;25.40;43.30
12477;DHT22;6303;51.504;6.300;2023-04-09T10:19:46;25.40;43.50
12477;DHT22;6303;51.504;6.300;2023-04-09T10:22:17;25.50;43.60
12477;DHT22;6303;51.504;6.300;2023-04-09T10:24:45;25.50;43.70
12477;DHT22;6303;51.504;6.300;2023-04-09T10:27:15;25.50;43.70
12477;DHT22;6303;51.504;6.300;2023-04-09T10:29:44;25.50;43.70
12477;DHT22;6303;51.504;6.300;2023-04-09T10:32:12;25.50;43.70
12477;DHT22;6303;51.504;6.300;2023-04-09T10:34:41;25.60;43.80
12477;DHT22;6303;51.504;6.300;2023-04-09T10:37:13;25.60;43.80
12477;DHT22;6303;51.504;6.300;2023-04-09T10:39:44;25.60;43.70
12477;DHT22;6303;51.504;6.300;2023-04-09T10:42:14;25.60;43.70
12477;DHT22;6303;51.504;6.300;2023-04-09T10:44:41;25.60;43.60
12477;DHT22;6303;51.504;6.300;2023-04-09T10:47:09;25.70;43.70
12477;DHT22;6303;51.504;6.300;2023-04-09T10:49:37;25.60;43.60
12477;DHT22;6303;51.504;6.300;2023-04-09T10:52:06;25.60;43.60
12477;DHT22;6303;51.504;6.300;2023-04-09T10:54:40;25.60;43.70
12477;DHT22;6303;51.504;6.300;2023-04-09T10:57:18;25.50;43.70
12477;DHT22;6303;51.504;6.300;2023-04-09T10:59:48;25.50;43.80
12477;DHT22;6303;51.504;6.300;2023-04-09T11:05:21;25.50;43.90
12477;DHT22;6303;51.504;6.300;2023-04-09T11:07:55;25.50;43.90
12477;DHT22;6303;51.504;6.300;2023-04-09T11:10:23;25.50;43.80
12477;DHT22;6303;51.504;6.300;2023-04-09T11:12:51;25.60;43.70
12477;DHT22;6303;51.504;6.300;2023-04-09T11:15:19;25.60;43.60
12477;DHT22;6303;51.504;6.300;2023-04-09T11:17:47;25.60;43.60
12477;DHT22;6303;51.504;6.300;2023-04-09T11:20:16;25.60;43.60
12477;DHT22;6303;51.504;6.300;2023-04-09T11:22:45;25.60;43.60
12477;DHT22;6303;51.504;6.300;2023-04-09T11:25:18;25.70;43.50
12477;DHT22;6303;51.504;6.300;2023-04-09T11:27:45;25.70;43.50
12477;DHT22;6303;51.504;6.300;2023-04-09T11:30:13;25.80;43.50
12477;DHT22;6303;51.504;6.300;2023-04-09T11:32:40;25.70;43.50
12477;DHT22;6303;51.504;6.300;2023-04-09T11:35:10;25.70;43.50
12477;DHT22;6303;51.504;6.300;2023-04-09T11:37:39;25.60;43.70
12477;DHT22;6303;51.504;6.300;2023-04-09T11:40:07;25.50;43.80
12477;DHT22;6303;51.504;6.300;2023-04-09T11:42:35;25.40;43.90
12477;DHT22;6303;51.504;6.300;2023-04-09T11:45:03;25.30;44.00
12477;DHT22;6303;51.504;6.300;2023-04-09T11:47:31;25.30;44.00
12477;DHT22;6303;51.504;6.300;2023-04-09T11:49:58;25.40;44.00
12477;DHT22;6303;51.504;6.300;2023-04-09T11:52:26;25.50;44.00
12477;DHT22;6303;51.504;6.300;2023-04-09T11:54:58;25.50;43.90
12477;DHT22;6303;51.504;6.300;2023-04-09T11:57:38;25.50;43.90
12477;DHT22;6303;51.504;6.300;2023-04-09T12:00:08;25.50;43.90
12477;DHT22;6303;51.504;6.300;2023-04-09T12:02:37;25.50;44.00
12477;DHT22;6303;51.504;6.300;2023-04-09T12:05:07;25.40;43.90
12477;DHT22;6303;51.504;6.300;2023-04-09T12:07:34;25.40;44.00
12477;DHT22;6303;51.504;6.300;2023-04-09T12:10:06;25.40;44.00
12477;DHT22;6303;51.504;6.300;2023-04-09T12:12:42;25.50;44.00
12477;DHT22;6303;51.504;6.300;2023-04-09T12:15:12;25.50;44.00
12477;DHT22;6303;51.504;6.300;2023-04-09T12:17:46;25.50;43.90
12477;DHT22;6303;51.504;6.300;2023-04-09T12:20:13;25.50;43.90
12477;DHT22;6303;51.504;6.300;2023-04-09T12:22:41;25.50;43.80
12477;DHT22;6303;51.504;6.300;2023-04-09T12:25:08;25.50;43.80
12477;DHT22;6303;51.504;6.300;2023-04-09T12:27:35;25.50;43.90
12477;DHT22;6303;51.504;6.300;2023-04-09T12:30:05;25.50;43.90
12477;DHT22;6303;51.504;6.300;2023-04-09T12:32:32;25.40;44.00
12477;DHT22;6303;51.504;6.300;2023-04-09T12:34:59;25.30;44.10
12477;DHT22;6303;51.504;6.300;2023-04-09T12:37:26;25.20;44.20
12477;DHT22;6303;51.504;6.300;2023-04-09T12:39:53;25.20;44.30
12477;DHT22;6303;51.504;6.300;2023-04-09T12:42:20;25.20;44.20
12477;DHT22;6303;51.504;6.300;2023-04-09T12:44:47;25.20;44.30
12477;DHT22;6303;51.504;6.300;2023-04-09T12:47:16;25.20;44.40
12477;DHT22;6303;51.504;6.300;2023-04-09T12:49:44;25.20;44.40
12477;DHT22;6303;51.504;6.300;2023-04-09T12:52:11;25.10;44.40
12477;DHT22;6303;51.504;6.300;2023-04-09T12:54:38;25.10;44.40
12477;DHT22;6303;51.504;6.300;2023-04-09T12:57:05;25.10;44.50
12477;DHT22;6303;51.504;6.300;2023-04-09T12:59:32;25.00;44.50
12477;DHT22;6303;51.504;6.300;2023-04-09T13:01:59;25.00;44.60
12477;DHT22;6303;51.504;6.300;2023-04-09T13:04:28;25.00;44.60
12477;DHT22;6303;51.504;6.300;2023-04-09T13:06:55;25.00;44.70
12477;DHT22;6303;51.504;6.300;2023-04-09T13:09:22;25.00;44.70
12477;DHT22;6303;51.504;6.300;2023-04-09T13:11:50;25.00;44.80
12477;DHT22;6303;51.504;6.300;2023-04-09T13:14:17;24.90;44.80
12477;DHT22;6303;51.504;6.300;2023-04-09T13:16:44;24.90;44.80
12477;DHT22;6303;51.504;6.300;2023-04-09T13:19:11;24.90;44.80
12477;DHT22;6303;51.504;6.300;2023-04-09T13:21:39;24.90;44.80
12477;DHT22;6303;51.504;6.300;2023-04-09T13:24:06;24.90;44.90
12477;DHT22;6303;51.504;6.300;2023-04-09T13:26:33;24.90;44.90
12477;DHT22;6303;51.504;6.300;2023-04-09T13:29:00;24.90;44.90
12477;DHT22;6303;51.504;6.300;2023-04-09T13:31:27;24.80;44.90
12477;DHT22;6303;51.504;6.300;2023-04-09T13:33:54;24.80;44.90
12477;DHT22;6303;51.504;6.300;2023-04-09T13:36:21;24.80;45.00
12477;DHT22;6303;51.504;6.300;2023-04-09T13:38:50;24.80;45.00
12477;DHT22;6303;51.504;6.300;2023-04-09T13:41:17;24.80;45.00
12477;DHT22;6303;51.504;6.300;2023-04-09T13:43:44;24.80;45.00
12477;DHT22;6303;51.504;6.300;2023-04-09T13:46:11;24.80;45.60
12477;DHT22;6303;51.504;6.300;2023-04-09T13:48:38;24.80;45.00
12477;DHT22;6303;51.504;6.300;2023-04-09T13:51:08;24.80;45.00
12477;DHT22;6303;51.504;6.300;2023-04-09T13:53:35;24.80;45.00
12477;DHT22;6303;51.504;6.300;2023-04-09T13:56:04;24.80;45.00
12477;DHT22;6303;51.504;6.300;2023-04-09T13:58:31;24.70;45.10
12477;DHT22;6303;51.504;6.300;2023-04-09T14:00:58;24.70;45.10
12477;DHT22;6303;51.504;6.300;2023-04-09T14:03:25;24.70;45.10
12477;DHT22;6303;51.504;6.300;2023-04-09T14:05:52;24.70;45.20
12477;DHT22;6303;51.504;6.300;2023-04-09T14:08:19;24.70;45.30
12477;DHT22;6303;51.504;6.300;2023-04-09T14:10:46;24.70;45.30
12477;DHT22;6303;51.504;6.300;2023-04-09T14:13:15;24.60;45.30
12477;DHT22;6303;51.504;6.300;2023-04-09T14:15:42;24.60;45.40
12477;DHT22;6303;51.504;6.300;2023-04-09T14:18:09;24.60;45.40
12477;DHT22;6303;51.504;6.300;2023-04-09T14:20:37;24.60;45.40
12477;DHT22;6303;51.504;6.300;2023-04-09T14:23:04;24.60;45.40
12477;DHT22;6303;51.504;6.300;2023-04-09T14:25:31;24.60;45.40
12477;DHT22;6303;51.504;6.300;2023-04-09T14:27:58;24.60;46.00
12477;DHT22;6303;51.504;6.300;2023-04-09T14:30:26;24.60;45.50
12477;DHT22;6303;51.504;6.300;2023-04-09T14:32:53;24.60;45.50
12477;DHT22;6303;51.504;6.300;2023-04-09T14:35:20;24.60;45.50
12477;DHT22;6303;51.504;6.300;2023-04-09T14:37:47;24.60;45.50
12477;DHT22;6303;51.504;6.300;2023-04-09T14:40:14;24.50;45.50
12477;DHT22;6303;51.504;6.300;2023-04-09T14:42:41;24.50;45.50
12477;DHT22;6303;51.504;6.300;2023-04-09T14:45:09;24.50;45.50
12477;DHT22;6303;51.504;6.300;2023-04-09T14:47:38;24.50;45.60
12477;DHT22;6303;51.504;6.300;2023-04-09T14:50:06;24.50;45.60
12477;DHT22;6303;51.504;6.300;2023-04-09T14:52:33;24.50;45.80
12477;DHT22;6303;51.504;6.300;2023-04-09T14:55:00;24.50;45.60
12477;DHT22;6303;51.504;6.300;2023-04-09T14:57:27;24.50;45.60
12477;DHT22;6303;51.504;6.300;2023-04-09T14:59:54;24.40;45.60
12477;DHT22;6303;51.504;6.300;2023-04-09T15:02:21;24.50;45.60
12477;DHT22;6303;51.504;6.300;2023-04-09T15:04:49;24.40;45.50
12477;DHT22;6303;51.504;6.300;2023-04-09T15:07:16;24.40;45.60
12477;DHT22;6303;51.504;6.300;2023-04-09T15:09:44;24.40;45.70
12477;DHT22;6303;51.504;6.300;2023-04-09T15:12:11;24.40;45.60
12477;DHT22;6303;51.504;6.300;2023-04-09T15:14:38;24.40;45.80
12477;DHT22;6303;51.504;6.300;2023-04-09T15:17:05;24.30;45.90
12477;DHT22;6303;51.504;6.300;2023-04-09T15:19:32;24.30;46.00
12477;DHT22;6303;51.504;6.300;2023-04-09T15:22:01;24.30;46.10
12477;DHT22;6303;51.504;6.300;2023-04-09T15:24:28;24.30;46.20
12477;DHT22;6303;51.504;6.300;2023-04-09T15:26:55;24.20;46.30
12477;DHT22;6303;51.504;6.300;2023-04-09T15:29:22;24.20;46.40
12477;DHT22;6303;51.504;6.300;2023-04-09T15:31:51;24.20;46.50
12477;DHT22;6303;51.504;6.300;2023-04-09T15:34:19;23.90;46.30
12477;DHT22;6303;51.504;6.300;2023-04-09T15:36:47;24.20;46.70
12477;DHT22;6303;51.504;6.300;2023-04-09T15:39:15;24.30;47.00
12477;DHT22;6303;51.504;6.300;2023-04-09T15:41:43;24.30;46.70
12477;DHT22;6303;51.504;6.300;2023-04-09T15:44:10;24.30;46.80
12477;DHT22;6303;51.504;6.300;2023-04-09T15:46:37;24.40;46.70
12477;DHT22;6303;51.504;6.300;2023-04-09T15:49:04;24.40;46.80
12477;DHT22;6303;51.504;6.300;2023-04-09T15:51:31;24.40;47.10
12477;DHT22;6303;51.504;6.300;2023-04-09T15:53:58;24.40;47.40
12477;DHT22;6303;51.504;6.300;2023-04-09T15:56:27;24.40;47.00